Time;durP1;ratioP1;P1;durP2;ratioP2;P2;SDS_P1;SDS_P2;PMS_P1;PMS_P2;Temp;Humidity;BMP_temperature;BMP_pressure;BME280_temperature;BME280_humidity;BME280_pressure;Samples;Min_cycle;Max_cycle;Signal;HPM_P1;HPM_P2
2021/11/13 00:01:50;;;;;;;7.32;1.90;;;;;;;7.63;99.33;101348.16;5018285;28;20034;-80
2021/11/13 00:04:16;;;;;;;7.15;2.50;;;;;;;7.66;99.07;101355.84;5020098;28;20116;-80
2021/11/13 00:06:41;;;;;;;4.97;2.00;;;;;;;7.73;98.40;101351.50;5003841;28;20042;-79
2021/11/13 00:09:07;;;;;;;8.38;2.20;;;;;;;7.53;98.65;101322.38;5003668;28;20026;-80
2021/11/13 00:11:34;;;;;;;2.33;1.70;;;;;;;7.32;99.60;101313.13;5021308;28;20033;-80
2021/11/13 00:14:02;;;;;;;5.68;2.10;;;;;;;7.65;99.59;101354.16;5019984;28;20041;-80
2021/11/13 00:16:31;;;;;;;5.43;2.03;;;;;;;7.61;99.16;101352.81;5019718;28;20022;-80
2021/11/13 00:18:56;;;;;;;8.43;2.35;;;;;;;7.49;99.31;101326.38;5020471;28;20044;-80
2021/11/13 00:21:22;;;;;;;6.43;2.55;;;;;;;7.56;99.76;101345.31;5000304;28;20392;-81
2021/11/13 00:23:47;;;;;;;6.97;2.20;;;;;;;7.46;99.43;101329.38;5005699;28;20061;-81
2021/11/13 00:26:13;;;;;;;6.38;2.50;;;;;;;7.65;99.18;101344.31;5024667;28;20062;-80
2021/11/13 00:28:38;;;;;;;7.03;2.17;;;;;;;7.46;99.81;101331.22;5005412;28;20040;-81
2021/11/13 00:31:03;;;;;;;7.15;2.38;;;;;;;7.40;99.31;101308.63;5020552;28;20064;-80
2021/11/13 00:33:29;;;;;;;6.43;2.20;;;;;;;7.56;99.98;101339.13;5001509;28;20064;-81
2021/11/13 00:35:55;;;;;;;5.40;2.20;;;;;;;7.50;100.00;101336.09;5003636;28;20187;-79
2021/11/13 00:38:20;;;;;;;7.07;2.50;;;;;;;7.44;99.63;101320.66;5024373;28;20105;-80
2021/11/13 00:40:47;;;;;;;5.72;2.00;;;;;;;7.48;100.00;101354.19;5024253;28;20365;-81
2021/11/13 00:43:13;;;;;;;3.88;2.20;;;;;;;7.47;100.00;101332.91;5022245;28;20052;-80
2021/11/13 00:45:38;;;;;;;6.57;2.47;;;;;;;7.60;99.69;101335.09;5020642;28;20041;-81
2021/11/13 00:48:04;;;;;;;5.32;2.20;;;;;;;7.46;100.00;101331.22;5017830;28;20096;-81
2021/11/13 00:50:29;;;;;;;5.07;2.03;;;;;;;7.50;100.00;101332.56;5020737;28;20128;-81
2021/11/13 00:52:55;;;;;;;6.57;2.20;;;;;;;7.46;100.00;101323.19;5003156;28;20135;-81
2021/11/13 00:55:20;;;;;;;7.00;2.53;;;;;;;7.54;100.00;101332.06;5002570;28;20056;-80
2021/11/13 00:57:47;;;;;;;8.02;2.70;;;;;;;7.47;100.00;101328.38;4999022;28;20080;-82
2021/11/13 01:00:16;;;;;;;6.47;2.88;;;;;;;7.22;100.00;101300.75;5002924;28;20042;-81
2021/11/13 01:02:44;;;;;;;5.63;2.40;;;;;;;7.32;100.00;101297.94;5018013;28;20053;-80
2021/11/13 01:05:10;;;;;;;5.28;2.20;;;;;;;7.41;100.00;101337.06;5020854;28;20033;-81
2021/11/13 01:07:36;;;;;;;4.93;2.10;;;;;;;7.43;100.00;101335.06;5003539;28;20403;-81
2021/11/13 01:10:04;;;;;;;6.68;2.58;;;;;;;7.43;100.00;101328.88;5019195;28;20033;-81
2021/11/13 01:12:31;;;;;;;8.68;2.80;;;;;;;7.39;100.00;101317.66;5023013;28;20033;-80
2021/11/13 01:14:57;;;;;;;7.18;2.67;;;;;;;7.21;100.00;101298.22;5022761;28;20059;-80
2021/11/13 01:17:22;;;;;;;5.00;2.63;;;;;;;7.33;100.00;101329.03;5021508;28;20073;-81
2021/11/13 01:19:48;;;;;;;6.45;2.85;;;;;;;7.13;100.00;101304.41;5021234;28;20018;-80
2021/11/13 01:22:15;;;;;;;7.15;2.80;;;;;;;7.21;100.00;101330.34;5020480;28;20041;-80
2021/11/13 01:24:41;;;;;;;5.32;2.60;;;;;;;7.09;100.00;101313.78;5023026;28;20060;-81
2021/11/13 01:27:07;;;;;;;7.32;3.22;;;;;;;7.23;100.00;101329.19;5021368;28;20037;-81
2021/11/13 01:29:33;;;;;;;6.53;2.92;;;;;;;7.24;100.00;101319.31;5022478;28;20026;-81
2021/11/13 01:31:58;;;;;;;5.00;2.72;;;;;;;7.06;100.00;101304.22;5024812;28;20033;-81
2021/11/13 01:34:24;;;;;;;6.55;2.80;;;;;;;6.92;100.00;101294.16;5005490;28;20072;-80
2021/11/13 01:36:50;;;;;;;5.80;2.97;;;;;;;7.17;100.00;101326.31;5023832;28;20038;-81
2021/11/13 01:39:15;;;;;;;6.78;3.30;;;;;;;7.17;100.00;101329.00;5024883;28;20049;-81
2021/11/13 01:41:41;;;;;;;7.63;3.45;;;;;;;7.25;100.00;101331.69;5016536;28;20022;-81
2021/11/13 01:44:08;;;;;;;6.68;2.95;;;;;;;7.26;100.00;101330.69;5033722;28;20026;-81
2021/11/13 01:46:33;;;;;;;7.50;3.00;;;;;;;7.21;100.00;101325.81;5031587;28;20041;-82
2021/11/13 01:48:59;;;;;;;6.35;3.17;;;;;;;7.27;100.00;101321.66;5031482;28;20034;-80
2021/11/13 01:51:27;;;;;;;7.70;3.15;;;;;;;7.15;100.00;101305.09;5033870;28;20018;-82
2021/11/13 01:53:55;;;;;;;6.47;3.00;;;;;;;7.25;100.00;101318.31;5030020;28;20022;-81
2021/11/13 01:56:23;;;;;;;7.90;3.30;;;;;;;7.24;100.00;101311.28;5027258;28;20037;-82
2021/11/13 01:58:52;;;;;;;10.63;3.20;;;;;;;7.20;100.00;101312.63;5030990;28;20021;-80
2021/11/13 02:01:18;;;;;;;7.25;3.00;;;;;;;7.24;100.00;101313.97;5029204;28;20018;-81
2021/11/13 02:03:48;;;;;;;6.88;2.97;;;;;;;7.28;100.00;101304.59;5030072;28;20053;-82
2021/11/13 02:06:16;;;;;;;7.50;3.08;;;;;;;7.26;100.00;101307.44;5029845;28;20025;-81
2021/11/13 02:08:42;;;;;;;6.50;2.72;;;;;;;7.24;100.00;101301.41;5028128;28;20049;-81
2021/11/13 02:11:12;;;;;;;6.95;3.30;;;;;;;7.21;100.00;101308.94;5023116;28;20109;-80
2021/11/13 02:13:38;;;;;;;6.43;2.58;;;;;;;7.26;100.00;101306.63;5019296;28;20026;-81
2021/11/13 02:16:05;;;;;;;5.10;2.70;;;;;;;7.35;100.00;101313.66;5018492;28;20333;-81
2021/11/13 02:18:30;;;;;;;6.63;2.70;;;;;;;7.30;100.00;101307.94;5000368;28;20026;-81
2021/11/13 02:20:56;;;;;;;6.88;2.63;;;;;;;7.23;100.00;101301.59;5014363;28;20344;-81
2021/11/13 02:23:23;;;;;;;5.32;2.50;;;;;;;7.17;100.00;101302.25;5016367;28;20123;-81
2021/11/13 02:25:51;;;;;;;5.55;2.53;;;;;;;7.23;100.00;101298.91;5015712;28;20397;-80
2021/11/13 02:28:20;;;;;;;4.13;1.98;;;;;;;7.26;100.00;101295.91;5018943;28;20029;-81
2021/11/13 02:30:47;;;;;;;6.85;2.20;;;;;;;7.36;100.00;101307.28;5017538;28;20490;-81
2021/11/13 02:33:14;;;;;;;4.82;2.30;;;;;;;7.22;100.00;101313.31;5017271;28;20032;-81
2021/11/13 02:35:40;;;;;;;5.07;2.10;;;;;;;7.33;100.00;101296.09;5018667;28;20029;-81
2021/11/13 02:38:13;;;;;;;6.40;2.17;;;;;;;7.28;100.00;101305.44;5019148;28;20030;-81
2021/11/13 02:40:41;;;;;;;5.03;2.30;;;;;;;7.27;100.00;101313.63;5020682;28;20028;-81
2021/11/13 02:43:06;;;;;;;7.65;2.65;;;;;;;7.24;100.00;101300.56;5030707;28;20026;-81
2021/11/13 02:45:32;;;;;;;5.93;2.53;;;;;;;7.21;100.00;101288.34;4997666;28;20104;-81
2021/11/13 02:48:02;;;;;;;3.58;2.00;;;;;;;7.21;100.00;101319.63;5011378;28;20025;-81
2021/11/13 02:50:27;;;;;;;5.80;2.15;;;;;;;7.22;100.00;101322.16;5022748;28;20060;-81
2021/11/13 02:52:57;;;;;;;6.25;2.00;;;;;;;7.29;100.00;101308.97;5018908;28;20025;-81
2021/11/13 02:55:25;;;;;;;4.03;1.90;;;;;;;7.24;100.00;101303.25;5019165;28;20045;-81
2021/11/13 02:57:51;;;;;;;6.78;2.17;;;;;;;7.35;100.00;101305.63;5015731;28;20144;-81
2021/11/13 03:00:20;;;;;;;4.82;2.05;;;;;;;7.25;100.00;101294.22;5018314;28;20026;-81
2021/11/13 03:02:46;;;;;;;4.07;2.45;;;;;;;7.32;100.00;101299.75;5018373;28;20029;-79
2021/11/13 03:05:44;;;;;;;2.58;1.73;;;;;;;7.22;100.00;101306.09;5016904;28;20030;-81
2021/11/13 03:08:09;;;;;;;5.78;2.10;;;;;;;7.35;100.00;101318.16;5005144;28;20030;-81
2021/11/13 03:10:37;;;;;;;5.63;2.25;;;;;;;7.33;100.00;101307.63;5028149;28;20056;-81
2021/11/13 03:13:03;;;;;;;4.93;2.50;;;;;;;7.36;100.00;101318.00;5021692;28;20029;-81
2021/11/13 03:15:29;;;;;;;3.95;1.90;;;;;;;7.21;100.00;101308.94;5023076;28;20034;-81
2021/11/13 03:17:56;;;;;;;6.63;2.28;;;;;;;7.24;100.00;101303.25;5021939;28;20045;-80
2021/11/13 03:20:28;;;;;;;4.78;2.13;;;;;;;7.28;100.00;101321.50;5022143;28;20090;-81
2021/11/13 03:22:55;;;;;;;4.32;2.58;;;;;;;7.33;100.00;101312.16;5020080;28;20029;-81
2021/11/13 03:25:23;;;;;;;5.18;2.38;;;;;;;7.40;100.00;101315.81;5021232;28;20196;-81
2021/11/13 03:27:53;;;;;;;4.25;1.92;;;;;;;7.13;100.00;101282.16;5019870;28;20030;-81
2021/11/13 03:30:21;;;;;;;4.47;2.03;;;;;;;7.22;100.00;101292.72;5020459;28;20029;-81
2021/11/13 03:32:47;;;;;;;2.97;1.75;;;;;;;7.28;100.00;101291.22;5018269;28;20096;-81
2021/11/13 03:35:14;;;;;;;3.92;2.08;;;;;;;7.39;100.00;101317.66;5000618;28;20037;-81
2021/11/13 03:37:40;;;;;;;4.10;2.42;;;;;;;7.47;100.00;101315.00;5000419;28;20053;-81
2021/11/13 03:40:08;;;;;;;4.07;2.10;;;;;;;7.39;100.00;101304.28;5013728;28;20037;-81
2021/11/13 03:42:33;;;;;;;4.15;2.17;;;;;;;7.48;100.00;101323.84;5020183;28;20030;-81
2021/11/13 03:45:00;;;;;;;4.45;2.35;;;;;;;7.40;100.00;101321.19;5020510;28;20536;-81
2021/11/13 03:47:25;;;;;;;5.30;2.78;;;;;;;7.35;100.00;101331.53;5020812;28;20030;-81
2021/11/13 03:49:51;;;;;;;4.55;2.60;;;;;;;7.36;100.00;101301.94;5018687;28;20083;-81
2021/11/13 03:52:16;;;;;;;4.63;2.58;;;;;;;7.40;100.00;101324.69;5018680;28;20337;-80
2021/11/13 03:54:41;;;;;;;5.72;2.80;;;;;;;7.28;100.00;101293.88;5019235;28;20037;-81
2021/11/13 03:57:07;;;;;;;3.05;2.05;;;;;;;7.43;100.00;101326.22;5018869;28;20044;-81
2021/11/13 03:59:32;;;;;;;4.63;2.45;;;;;;;7.15;100.00;101294.38;5024360;28;20025;-81
2021/11/13 04:02:01;;;;;;;6.53;2.53;;;;;;;7.41;100.00;101337.06;5021161;28;20026;-82
2021/11/13 04:04:26;;;;;;;5.13;2.80;;;;;;;7.45;100.00;101330.41;5020577;28;20025;-81
2021/11/13 04:06:52;;;;;;;6.18;3.10;;;;;;;7.56;100.00;101336.44;5003585;28;20030;-81
2021/11/13 04:09:17;;;;;;;7.57;3.17;;;;;;;7.49;100.00;101333.59;5017261;28;20105;-81
2021/11/13 04:11:43;;;;;;;5.78;2.95;;;;;;;7.54;100.00;101325.88;5020109;28;20020;-81
2021/11/13 04:14:09;;;;;;;5.95;2.58;;;;;;;7.43;100.00;101335.06;5017723;28;20116;-81
2021/11/13 04:16:34;;;;;;;4.97;2.97;;;;;;;7.43;100.00;101319.00;5018975;28;20033;-81
2021/11/13 04:19:00;;;;;;;7.00;3.20;;;;;;;7.51;100.00;101343.09;5018510;28;20065;-81
2021/11/13 04:21:25;;;;;;;4.25;2.80;;;;;;;7.46;100.00;101328.56;5014716;28;20053;-81
2021/11/13 04:23:52;;;;;;;5.07;2.95;;;;;;;7.50;100.00;101328.03;5023816;28;20034;-81
2021/11/13 04:26:18;;;;;;;4.47;2.65;;;;;;;7.45;100.00;101319.69;5024288;28;20069;-80
2021/11/13 04:28:47;;;;;;;6.88;3.03;;;;;;;7.55;100.00;101322.22;5016777;28;20081;-81
2021/11/13 04:31:13;;;;;;;6.43;3.08;;;;;;;7.61;100.00;101337.59;5019472;28;20036;-81
2021/11/13 04:33:39;;;;;;;5.32;2.85;;;;;;;7.67;100.00;101341.44;5016284;28;20090;-81
2021/11/13 04:36:09;;;;;;;7.05;3.05;;;;;;;7.52;100.00;101346.66;5002760;28;20041;-81
2021/11/13 04:38:35;;;;;;;5.38;3.03;;;;;;;7.57;100.00;101336.25;5018122;28;20033;-80
2021/11/13 04:41:04;;;;;;;5.13;3.15;;;;;;;7.44;100.00;101328.72;5018920;28;20029;-80
2021/11/13 04:43:30;;;;;;;4.88;2.90;;;;;;;7.54;100.00;101358.00;5021066;28;20030;-81
2021/11/13 04:45:56;;;;;;;5.60;3.10;;;;;;;7.66;100.00;101356.69;5017511;28;20067;-80
2021/11/13 04:48:22;;;;;;;4.18;2.60;;;;;;;7.53;100.00;101340.28;4998353;28;20624;-80
2021/11/13 04:50:47;;;;;;;6.70;2.70;;;;;;;7.37;100.00;101330.38;4998870;28;20066;-81
2021/11/13 04:53:13;;;;;;;6.93;3.05;;;;;;;7.58;100.00;101337.91;5011084;28;20883;-81
2021/11/13 04:55:39;;;;;;;3.67;2.47;;;;;;;7.53;100.00;101357.19;5019981;28;20080;-81
2021/11/13 04:58:05;;;;;;;4.53;2.70;;;;;;;7.47;100.00;101330.22;5001295;28;20026;-81
2021/11/13 05:00:31;;;;;;;3.75;2.28;;;;;;;7.41;100.00;101358.50;5017578;28;20076;-80
2021/11/13 05:02:57;;;;;;;5.80;2.85;;;;;;;7.44;100.00;101360.00;5001833;28;20050;-81
2021/11/13 05:05:23;;;;;;;5.85;2.35;;;;;;;7.53;100.00;101359.84;5016684;28;20029;-81
2021/11/13 05:07:50;;;;;;;6.70;2.80;;;;;;;7.36;100.00;101315.31;5018175;28;20137;-80
2021/11/13 05:10:16;;;;;;;4.05;2.50;;;;;;;7.64;100.00;101369.41;5019655;28;20053;-80
2021/11/13 05:12:42;;;;;;;5.47;2.45;;;;;;;7.66;100.00;101369.25;5006772;28;20122;-81
2021/11/13 05:15:09;;;;;;;5.13;2.03;;;;;;;7.62;100.00;101366.06;5018131;28;20121;-81
2021/11/13 05:17:35;;;;;;;5.72;2.40;;;;;;;7.62;100.00;101376.78;5016558;28;20674;-80
2021/11/13 05:20:01;;;;;;;4.68;2.28;;;;;;;7.61;100.00;101374.25;5017237;28;20030;-81
2021/11/13 05:22:27;;;;;;;3.97;2.33;;;;;;;7.46;100.00;101349.97;5017576;28;20030;-81
2021/11/13 05:24:52;;;;;;;2.38;2.05;;;;;;;7.56;100.00;101373.94;5016996;28;20048;-81
2021/11/13 05:27:18;;;;;;;4.20;2.10;;;;;;;7.58;100.00;101370.06;5018229;28;20423;-81
2021/11/13 05:29:43;;;;;;;4.72;1.88;;;;;;;7.41;100.00;101361.16;5002567;28;20042;-81
2021/11/13 05:32:10;;;;;;;6.78;2.55;;;;;;;7.41;100.00;101361.16;5018947;28;20034;-81
2021/11/13 05:34:36;;;;;;;6.40;2.38;;;;;;;7.57;100.00;101368.38;5019027;28;20052;-81
2021/11/13 05:37:01;;;;;;;5.15;2.40;;;;;;;7.58;100.00;101379.94;5017249;28;20030;-80
2021/11/13 05:39:27;;;;;;;3.88;1.77;;;;;;;7.52;100.00;101381.47;5019483;28;20033;-81
2021/11/13 05:41:54;;;;;;;5.47;2.28;;;;;;;7.49;100.00;101363.03;5022566;28;20046;-81
2021/11/13 05:44:19;;;;;;;6.43;2.30;;;;;;;7.62;100.00;101397.38;5004717;28;20026;-81
2021/11/13 05:46:50;;;;;;;3.25;2.03;;;;;;;7.66;100.00;101388.00;5019781;28;20338;-81
2021/11/13 05:49:16;;;;;;;3.22;1.98;;;;;;;7.51;100.00;101393.97;5019463;28;20029;-80
2021/11/13 05:51:41;;;;;;;5.53;2.25;;;;;;;7.58;100.00;101388.81;5019709;28;20026;-82
2021/11/13 05:54:07;;;;;;;4.32;2.38;;;;;;;7.65;100.00;101395.19;5020052;28;20042;-81
2021/11/13 05:56:32;;;;;;;4.05;2.13;;;;;;;7.50;100.00;101389.63;5019057;28;20036;-81
2021/11/13 05:58:59;;;;;;;7.13;2.22;;;;;;;7.49;100.00;101376.44;5020696;28;20128;-81
2021/11/13 06:01:26;;;;;;;4.20;2.05;;;;;;;7.65;100.00;101403.25;4998799;28;20066;-81
2021/11/13 06:03:52;;;;;;;4.65;2.13;;;;;;;7.72;100.00;101395.38;5015699;28;20052;-81
2021/11/13 06:06:17;;;;;;;3.75;2.22;;;;;;;7.53;100.00;101373.25;5019977;28;20364;-81
2021/11/13 06:08:43;;;;;;;4.68;2.00;;;;;;;7.65;100.00;101397.00;4999832;28;20062;-81
2021/11/13 06:11:09;;;;;;;3.97;1.98;;;;;;;7.70;100.00;101402.72;5010218;28;20030;-80
2021/11/13 06:13:35;;;;;;;2.95;2.40;;;;;;;7.61;100.00;101411.75;4984934;28;20471;-80
2021/11/13 06:16:03;;;;;;;4.43;1.90;;;;;;;7.57;100.00;101405.06;5018394;28;20095;-81
2021/11/13 06:18:30;;;;;;;5.68;1.88;;;;;;;7.68;100.00;101413.63;5017382;28;20117;-80
2021/11/13 06:20:55;;;;;;;4.30;2.30;;;;;;;7.67;100.00;101416.44;5015733;28;20395;-80
2021/11/13 06:23:21;;;;;;;4.60;2.22;;;;;;;7.69;100.00;101414.47;5019683;28;20040;-81
2021/11/13 06:25:46;;;;;;;3.80;2.10;;;;;;;7.68;100.00;101413.63;5015960;28;20091;-80
2021/11/13 06:28:12;;;;;;;4.97;2.20;;;;;;;7.68;100.00;101426.16;5015208;28;20045;-81
2021/11/13 06:30:37;;;;;;;4.13;2.15;;;;;;;7.61;100.00;101423.28;5016490;28;20129;-80
2021/11/13 06:33:03;;;;;;;3.97;2.00;;;;;;;7.61;100.00;101417.09;5016796;28;20025;-80
2021/11/13 06:35:28;;;;;;;5.72;2.00;;;;;;;7.71;100.00;101437.38;5000349;28;20044;-81
2021/11/13 06:37:53;;;;;;;4.95;2.00;;;;;;;7.80;100.00;101442.75;4997759;28;20045;-81
2021/11/13 06:40:19;;;;;;;3.45;1.83;;;;;;;7.71;100.00;101440.06;5016951;28;20113;-81
2021/11/13 06:42:45;;;;;;;4.15;1.95;;;;;;;7.73;100.00;101429.19;5015796;28;20045;-80
2021/11/13 06:45:12;;;;;;;5.40;2.17;;;;;;;7.68;100.00;101432.38;5018280;28;20026;-81
2021/11/13 06:47:37;;;;;;;5.00;1.90;;;;;;;7.82;100.00;101444.28;5017468;28;20026;-81
2021/11/13 06:50:05;;;;;;;3.92;1.70;;;;;;;7.72;100.00;101435.56;5016341;28;20100;-81
2021/11/13 06:52:30;;;;;;;3.63;1.90;;;;;;;7.69;100.00;101422.50;5018147;28;20033;-81
2021/11/13 06:54:56;;;;;;;4.60;1.55;;;;;;;7.66;100.00;101438.88;5016892;28;20030;-82
2021/11/13 06:57:21;;;;;;;4.00;1.67;;;;;;;7.83;100.00;101455.81;5022120;28;20034;-82
2021/11/13 06:59:48;;;;;;;3.17;1.40;;;;;;;7.76;100.00;101458.31;5019354;28;20034;-81
2021/11/13 07:02:15;;;;;;;4.70;1.70;;;;;;;7.81;100.00;101458.66;4997458;28;20057;-81
2021/11/13 07:04:41;;;;;;;3.42;1.77;;;;;;;7.78;100.00;101450.94;4998494;28;20068;-80
2021/11/13 07:07:06;;;;;;;1.77;1.40;;;;;;;7.64;100.00;101432.84;5001274;28;20129;-80
2021/11/13 07:09:32;;;;;;;3.15;1.60;;;;;;;7.73;100.00;101459.50;5024329;28;20033;-81
2021/11/13 07:11:57;;;;;;;2.88;1.50;;;;;;;7.86;100.00;101459.00;5028073;28;20041;-80
2021/11/13 07:14:22;;;;;;;3.10;1.40;;;;;;;7.60;100.00;101420.78;5009378;28;20034;-81
2021/11/13 07:16:48;;;;;;;2.95;1.58;;;;;;;7.83;100.00;101458.50;5019097;28;20125;-80
2021/11/13 07:19:13;;;;;;;3.60;1.42;;;;;;;7.77;100.00;101452.78;5015870;28;20030;-81
2021/11/13 07:21:40;;;;;;;3.13;1.40;;;;;;;7.94;100.00;101471.56;5017454;28;20545;-80
2021/11/13 07:24:08;;;;;;;4.70;1.70;;;;;;;7.52;100.00;101430.50;5016796;28;20037;-81
2021/11/13 07:26:34;;;;;;;1.85;1.10;;;;;;;7.89;100.00;101469.41;5017183;28;20550;-81
2021/11/13 07:29:08;;;;;;;4.38;1.60;;;;;;;7.81;100.00;101477.41;5018946;28;20069;-81
2021/11/13 07:31:33;;;;;;;2.50;1.10;;;;;;;7.93;100.00;101483.31;5017897;28;20022;-80
2021/11/13 07:33:59;;;;;;;2.72;1.20;;;;;;;7.97;100.00;101479.28;5004175;28;20124;-81
2021/11/13 07:36:25;;;;;;;1.95;1.10;;;;;;;7.92;100.00;101477.13;4997104;28;20041;-80
2021/11/13 07:38:51;;;;;;;2.35;1.05;;;;;;;7.98;100.00;101475.63;5017314;28;20029;-80
2021/11/13 07:41:18;;;;;;;1.58;1.00;;;;;;;8.08;99.72;101481.66;5015013;28;20460;-81
2021/11/13 07:43:44;;;;;;;2.45;1.00;;;;;;;7.96;100.00;101458.84;5015902;28;20089;-81
2021/11/13 07:46:10;;;;;;;1.50;1.25;;;;;;;8.06;100.00;101480.97;5015597;28;20038;-81
2021/11/13 07:48:37;;;;;;;1.80;1.15;;;;;;;8.04;100.00;101487.50;5015775;28;20026;-81
2021/11/13 07:51:03;;;;;;;2.80;1.05;;;;;;;8.06;99.81;101480.97;5018883;28;20044;-81
2021/11/13 07:53:30;;;;;;;2.88;1.10;;;;;;;7.98;100.00;101489.84;5018764;28;20033;-81
2021/11/13 07:55:55;;;;;;;4.45;1.88;;;;;;;8.09;100.00;101485.19;5014950;28;20038;-81
2021/11/13 07:58:21;;;;;;;6.28;2.30;;;;;;;8.08;99.15;101484.34;5017730;28;20036;-80
2021/11/13 08:00:48;;;;;;;2.45;1.38;;;;;;;8.13;99.96;101484.66;5003080;28;20085;-80
2021/11/13 08:03:14;;;;;;;1.70;0.95;;;;;;;8.17;99.70;101490.53;5019497;28;20041;-81
2021/11/13 08:05:39;;;;;;;1.77;0.90;;;;;;;8.21;99.19;101482.00;5018904;28;20030;-80
2021/11/13 08:08:06;;;;;;;1.80;0.90;;;;;;;8.14;99.24;101488.19;5020520;28;20105;-81
2021/11/13 08:10:40;;;;;;;1.65;1.00;;;;;;;8.11;99.19;101493.88;5023187;28;20038;-79
2021/11/13 08:13:06;;;;;;;;;;;;;;;8.17;98.68;101490.53;5024952;28;20030;-81
2021/11/13 08:15:31;;;;;;;3.30;1.20;;;;;;;8.14;99.30;101494.38;5018888;28;19914;-80
2021/11/13 08:17:57;;;;;;;3.25;1.38;;;;;;;8.16;98.94;101494.22;5019227;28;20483;-80
2021/11/13 08:20:23;;;;;;;1.98;1.00;;;;;;;8.07;98.71;101479.13;5018108;28;20034;-80
2021/11/13 08:22:49;;;;;;;7.95;4.38;;;;;;;8.10;98.34;101489.53;5018600;28;20022;-80
2021/11/13 08:25:14;;;;;;;2.88;1.90;;;;;;;8.16;98.79;101502.28;5021664;28;20034;-81
2021/11/13 08:27:41;;;;;;;2.55;2.03;;;;;;;8.26;98.25;101494.06;5016944;28;20045;-81
2021/11/13 08:30:07;;;;;;;2.72;1.10;;;;;;;8.15;98.84;101506.78;5015079;28;20172;-79
2021/11/13 08:32:33;;;;;;;2.40;1.20;;;;;;;8.10;99.10;101509.13;5015976;28;20026;-79
2021/11/13 08:34:59;;;;;;;3.88;1.40;;;;;;;8.18;98.96;101516.34;5015296;28;20030;-80
2021/11/13 08:37:26;;;;;;;1.80;1.00;;;;;;;8.27;98.16;101514.50;5018017;28;20367;-80
2021/11/13 08:39:51;;;;;;;1.42;1.10;;;;;;;8.21;98.19;101516.00;5018433;28;20422;-80
2021/11/13 08:42:17;;;;;;;5.63;1.48;;;;;;;8.22;98.35;101529.25;5023317;28;20030;-80
2021/11/13 08:44:46;;;;;;;2.13;0.90;;;;;;;8.16;98.05;101521.03;4999306;28;20034;-80
2021/11/13 08:47:13;;;;;;;3.08;1.10;;;;;;;8.19;97.89;101528.75;5017115;28;20033;-80
2021/11/13 08:49:43;;;;;;;2.00;1.15;;;;;;;8.37;97.81;101529.41;5016671;28;20145;-80
2021/11/13 08:52:11;;;;;;;4.03;1.23;;;;;;;8.17;97.69;101523.53;5013862;28;20029;-80
2021/11/13 08:54:36;;;;;;;3.05;1.05;;;;;;;8.25;97.39;101512.00;5018450;28;20030;-80
2021/11/13 08:57:03;;;;;;;2.25;1.00;;;;;;;8.44;97.28;101538.53;5015356;28;20048;-80
2021/11/13 08:59:30;;;;;;;1.75;0.90;;;;;;;8.41;97.16;101536.19;5015802;28;20022;-80
2021/11/13 09:01:56;;;;;;;2.05;1.00;;;;;;;8.36;97.57;101551.06;5015197;28;20061;-80
2021/11/13 09:04:21;;;;;;;3.50;1.00;;;;;;;8.37;97.05;101544.66;5017433;28;20496;-81
2021/11/13 09:06:47;;;;;;;2.55;1.00;;;;;;;8.35;97.48;101554.75;5014164;28;20061;-80
2021/11/13 09:09:13;;;;;;;1.58;1.00;;;;;;;8.42;96.79;101561.97;5016193;28;20491;-79
2021/11/13 09:11:40;;;;;;;2.22;1.08;;;;;;;8.33;97.09;101537.97;5013305;28;20140;-80
2021/11/13 09:14:09;;;;;;;4.07;1.20;;;;;;;8.38;97.12;101549.09;5015426;28;20084;-81
2021/11/13 09:16:34;;;;;;;2.00;1.08;;;;;;;8.43;97.12;101563.66;5016463;28;20651;-80
2021/11/13 09:19:01;;;;;;;1.70;1.00;;;;;;;8.40;97.64;101558.63;5014657;28;20070;-80
2021/11/13 09:21:29;;;;;;;1.80;1.00;;;;;;;8.35;96.57;101568.97;5020621;28;20076;-81
2021/11/13 09:23:54;;;;;;;3.92;1.40;;;;;;;8.38;96.69;101554.44;5010928;28;20049;-81
2021/11/13 09:26:20;;;;;;;2.92;1.20;;;;;;;8.32;97.30;101545.19;5029344;28;20046;-83
2021/11/13 09:28:46;;;;;;;2.95;1.50;;;;;;;8.36;96.48;101551.88;5018716;28;20041;-81
2021/11/13 09:31:12;;;;;;;3.30;1.50;;;;;;;8.30;96.98;101568.63;5032690;28;20026;-83
2021/11/13 09:33:37;;;;;;;2.47;1.20;;;;;;;8.20;96.76;101539.28;5031318;28;20030;-82
2021/11/13 09:36:04;;;;;;;3.90;1.52;;;;;;;8.41;96.88;101565.69;5032984;28;20033;-83
2021/11/13 09:38:34;;;;;;;2.60;1.65;;;;;;;8.43;96.56;101563.66;5016481;28;20017;-82
2021/11/13 09:41:04;;;;;;;3.53;1.67;;;;;;;8.40;96.71;101542.53;5033431;28;20061;-83
2021/11/13 09:43:30;;;;;;;4.22;1.50;;;;;;;8.50;96.57;101568.34;5032290;28;20448;-82
2021/11/13 09:45:58;;;;;;;4.78;1.50;;;;;;;8.60;96.35;101564.50;5032208;28;20033;-83
2021/11/13 09:48:24;;;;;;;3.60;1.40;;;;;;;8.60;96.42;101567.19;5031227;28;20026;-82
2021/11/13 09:50:50;;;;;;;4.25;2.00;;;;;;;8.58;95.62;101557.63;5034529;28;20121;-83
2021/11/13 09:53:19;;;;;;;5.53;1.67;;;;;;;8.61;95.70;101559.97;5015238;28;20030;-81
2021/11/13 09:55:45;;;;;;;3.45;1.40;;;;;;;8.61;95.90;101570.69;5034810;28;20038;-81
2021/11/13 09:58:11;;;;;;;4.07;1.80;;;;;;;8.70;95.74;101572.38;5032257;28;20013;-82
2021/11/13 10:00:39;;;;;;;5.30;1.65;;;;;;;8.58;95.54;101568.38;5013844;28;20034;-83
2021/11/13 10:03:06;;;;;;;6.55;1.90;;;;;;;8.75;95.14;101564.69;5013743;28;20042;-82
2021/11/13 10:05:32;;;;;;;6.40;1.70;;;;;;;8.68;95.31;101574.41;5032245;28;20022;-83
2021/11/13 10:07:57;;;;;;;5.80;1.90;;;;;;;8.49;95.61;101566.69;5034208;28;20079;-83
2021/11/13 10:10:42;;;;;;;4.38;1.80;;;;;;;8.68;95.29;101585.13;5040410;28;20022;-83
2021/11/13 10:13:26;;;;;;;4.85;1.73;;;;;;;8.73;95.31;101593.50;5031019;28;20034;-84
2021/11/13 10:15:56;;;;;;;3.58;1.40;;;;;;;8.58;95.03;101571.88;5030355;28;20030;-82
2021/11/13 10:18:28;;;;;;;5.60;2.05;;;;;;;8.68;95.39;101569.88;5034307;28;20018;-83
2021/11/13 10:20:56;;;;;;;2.75;1.40;;;;;;;8.85;94.59;101589.50;5039574;28;20109;-84
2021/11/13 10:23:25;;;;;;;7.68;1.73;;;;;;;8.90;94.72;101592.50;5034521;28;20002;-82
2021/11/13 10:26:08;;;;;;;6.60;1.83;;;;;;;8.90;94.27;101580.91;5028428;28;20070;-82
2021/11/13 10:28:47;;;;;;;6.00;1.90;;;;;;;8.89;94.69;101585.44;5033722;28;20034;-84
2021/11/13 10:31:17;;;;;;;3.75;1.80;;;;;;;8.83;94.29;101596.03;5028864;28;20038;-83
2021/11/13 10:33:43;;;;;;;4.68;1.73;;;;;;;8.67;95.01;101578.06;5026226;28;20026;-84
2021/11/13 10:36:10;;;;;;;6.25;1.75;;;;;;;8.59;94.49;101556.63;5030552;28;20037;-83
2021/11/13 10:38:37;;;;;;;4.13;1.42;;;;;;;8.94;94.41;101604.59;5031153;28;20066;-84
2021/11/13 10:41:10;;;;;;;9.15;1.92;;;;;;;8.84;94.38;101614.66;5030482;28;20425;-83
2021/11/13 10:43:40;;;;;;;5.25;1.70;;;;;;;9.01;94.04;101609.28;5031548;28;20026;-82
2021/11/13 10:46:13;;;;;;;5.18;1.63;;;;;;;8.88;94.05;101616.00;5029459;28;20014;-82
2021/11/13 10:48:42;;;;;;;6.03;1.83;;;;;;;9.06;93.53;101612.28;5049374;28;20034;-83
2021/11/13 10:51:16;;;;;;;4.93;1.70;;;;;;;8.40;93.56;101526.44;5191640;22;20081;-82
2021/11/13 10:53:43;;;;;;;4.80;1.50;;;;;;;7.95;93.82;101447.31;5064016;28;20021;-83
2021/11/13 10:56:12;;;;;;;4.38;1.55;;;;;;;8.98;93.80;101628.41;5057006;28;20048;-84
2021/11/13 10:58:43;;;;;;;3.42;1.70;;;;;;;7.78;93.12;101429.50;5056721;28;20010;-83
2021/11/13 11:01:22;;;;;;;3.15;1.58;;;;;;;7.62;92.40;101355.34;5051713;28;20018;-84
2021/11/13 11:03:50;;;;;;;4.05;1.58;;;;;;;9.06;92.88;101613.13;5053582;28;20022;-82
2021/11/13 11:06:22;;;;;;;4.25;1.60;;;;;;;7.76;93.55;101442.25;5052063;28;20052;-82
2021/11/13 11:08:48;;;;;;;4.35;1.67;;;;;;;7.63;93.21;101393.69;5051056;28;20030;-84
2021/11/13 11:11:27;;;;;;;4.15;1.80;;;;;;;8.01;93.25;101421.66;5046908;28;20090;-85
2021/11/13 11:13:58;;;;;;;5.05;1.98;;;;;;;7.69;92.31;101366.25;5043534;28;20021;-83
2021/11/13 11:16:24;;;;;;;4.78;1.90;;;;;;;9.16;92.83;101600.34;5054206;28;20032;-84
2021/11/13 11:18:58;;;;;;;4.20;2.00;;;;;;;9.08;92.02;101595.00;5052606;28;20026;-83
2021/11/13 11:21:42;;;;;;;5.03;1.88;;;;;;;9.19;93.00;101607.22;5046294;28;20021;-83
2021/11/13 11:24:19;;;;;;;4.55;1.83;;;;;;;9.18;91.96;101614.47;5046889;28;20005;-85
2021/11/13 11:26:47;;;;;;;4.22;1.60;;;;;;;7.72;92.52;101393.53;5047069;28;20031;-83
2021/11/13 11:29:14;;;;;;;6.43;1.98;;;;;;;8.04;92.34;101466.88;5045502;28;20005;-84